createdAt,value
2022-09-23T00:01:42.830Z,8.30
2022-09-23T00:04:11.676Z,7.40
2022-09-23T00:06:41.687Z,8.30
2022-09-23T00:09:10.093Z,8.40
2022-09-23T00:11:45.186Z,8.40
2022-09-23T00:14:17.636Z,8.30
2022-09-23T00:16:47.579Z,8.30
2022-09-23T00:19:16.086Z,8.20
2022-09-23T00:21:49.268Z,8.20
2022-09-23T00:24:28.532Z,8.20
2022-09-23T00:26:56.915Z,8.20
2022-09-23T00:29:26.590Z,8.10
2022-09-23T00:31:57.612Z,8.00
2022-09-23T00:34:29.743Z,8.10
2022-09-23T00:36:58.262Z,8.20
2022-09-23T00:39:29.166Z,8.10
2022-09-23T00:41:57.832Z,8.10
2022-09-23T00:45:00.910Z,8.10
2022-09-23T00:47:36.461Z,8.00
2022-09-23T00:50:14.937Z,7.90
2022-09-23T00:52:43.464Z,8.00
2022-09-23T00:55:17.471Z,8.00
2022-09-23T00:57:48.152Z,8.00
2022-09-23T01:00:16.897Z,8.00
2022-09-23T01:02:47.672Z,8.00
2022-09-23T01:05:18.174Z,7.70
2022-09-23T01:07:50.165Z,8.00
2022-09-23T01:10:20.070Z,7.90
2022-09-23T01:13:09.500Z,7.80
2022-09-23T01:15:49.695Z,7.90
2022-09-23T01:18:34.818Z,8.00
2022-09-23T01:21:31.607Z,8.00
2022-09-23T01:24:47.684Z,7.80
2022-09-23T01:27:42.188Z,7.80
2022-09-23T01:30:47.023Z,7.60
2022-09-23T01:33:25.628Z,7.70
2022-09-23T01:36:19.125Z,7.70
2022-09-23T01:38:59.801Z,7.60
2022-09-23T01:41:48.820Z,7.60
2022-09-23T01:44:25.703Z,6.50
2022-09-23T01:47:00.805Z,7.70
2022-09-23T01:49:38.676Z,7.20
2022-09-23T01:52:17.566Z,7.70
2022-09-23T01:54:58.930Z,7.70
2022-09-23T01:57:35.779Z,7.60
2022-09-23T02:00:11.781Z,7.50
2022-09-23T02:02:50.113Z,7.50
2022-09-23T02:05:25.236Z,5.80
2022-09-23T02:07:59.955Z,7.50
2022-09-23T02:10:36.096Z,7.50
2022-09-23T02:13:15.729Z,7.50
2022-09-23T02:15:51.842Z,7.40
2022-09-23T02:18:27.340Z,7.50
2022-09-23T02:21:01.502Z,7.40
2022-09-23T02:23:40.860Z,7.40
2022-09-23T02:26:19.737Z,7.50
2022-09-23T02:28:57.890Z,7.50
2022-09-23T02:31:37.524Z,7.40
2022-09-23T02:34:22.121Z,7.40
2022-09-23T02:37:07.856Z,7.40
2022-09-23T02:39:51.454Z,7.30
2022-09-23T02:42:28.515Z,7.20
2022-09-23T02:44:58.752Z,7.30
2022-09-23T02:47:33.007Z,7.20
2022-09-23T02:50:03.508Z,6.90
2022-09-23T02:52:32.096Z,7.30
2022-09-23T02:55:01.745Z,7.30
2022-09-23T02:57:30.148Z,6.10
2022-09-23T02:59:59.269Z,7.10
2022-09-23T03:03:06.363Z,6.70
2022-09-23T03:05:52.738Z,7.20
2022-09-23T03:08:39.559Z,7.20
2022-09-23T03:11:11.329Z,6.20
2022-09-23T03:14:05.214Z,7.20
2022-09-23T03:16:43.969Z,5.80
2022-09-23T03:19:27.529Z,7.10
2022-09-23T03:22:05.442Z,7.10
2022-09-23T03:24:37.089Z,7.00
2022-09-23T03:27:13.856Z,7.10
2022-09-23T03:29:47.448Z,7.00
2022-09-23T03:32:24.156Z,6.90
2022-09-23T03:34:57.805Z,6.90
2022-09-23T03:37:34.245Z,6.80
2022-09-23T03:40:10.988Z,6.90
2022-09-23T03:42:48.924Z,5.60
2022-09-23T03:45:23.433Z,6.90
2022-09-23T03:47:51.807Z,6.80
2022-09-23T03:50:24.464Z,6.90
2022-09-23T03:52:55.466Z,6.80
2022-09-23T03:55:23.921Z,6.80
2022-09-23T03:57:52.699Z,6.80
2022-09-23T04:00:21.390Z,6.70
2022-09-23T04:02:50.492Z,6.60
2022-09-23T04:05:19.300Z,6.70
2022-09-23T04:07:48.525Z,6.70
2022-09-23T04:10:18.545Z,6.70
2022-09-23T04:12:46.985Z,6.60
2022-09-23T04:15:17.303Z,6.70
2022-09-23T04:17:45.731Z,6.70
2022-09-23T04:20:14.310Z,6.70
2022-09-23T04:22:47.201Z,6.60
2022-09-23T04:25:17.175Z,6.30
2022-09-23T04:27:45.616Z,6.80
2022-09-23T04:30:15.302Z,6.40
2022-09-23T04:32:43.732Z,6.70
2022-09-23T04:35:12.116Z,6.50
2022-09-23T04:37:40.561Z,6.40
2022-09-23T04:40:14.544Z,6.60
2022-09-23T04:42:47.038Z,6.60
2022-09-23T04:45:15.784Z,6.50
2022-09-23T04:47:44.218Z,6.50
2022-09-23T04:50:12.695Z,6.50
2022-09-23T04:52:41.172Z,6.60
2022-09-23T04:55:11.470Z,6.60
2022-09-23T04:57:40.063Z,6.60
2022-09-23T05:00:12.414Z,6.50
2022-09-23T05:02:45.374Z,6.50
2022-09-23T05:05:21.629Z,5.40
2022-09-23T05:07:50.252Z,6.30
2022-09-23T05:10:19.528Z,6.20
2022-09-23T05:12:48.003Z,6.30
2022-09-23T05:15:18.288Z,6.20
2022-09-23T05:17:46.676Z,6.20
2022-09-23T05:20:15.128Z,6.30
2022-09-23T05:22:43.529Z,6.20
2022-09-23T05:25:11.939Z,6.40
2022-09-23T05:27:40.366Z,6.10
2022-09-23T05:30:11.738Z,6.50
2022-09-23T05:32:41.546Z,6.60
2022-09-23T05:35:10.598Z,6.60
2022-09-23T05:37:38.977Z,6.50
2022-09-23T05:40:08.307Z,6.50
2022-09-23T05:42:36.778Z,6.60
2022-09-23T05:45:07.693Z,6.50
2022-09-23T05:47:40.316Z,6.60
2022-09-23T05:50:09.821Z,6.70
2022-09-23T05:52:38.233Z,6.60
2022-09-23T05:55:08.295Z,6.70
2022-09-23T05:57:39.088Z,6.70
2022-09-23T06:00:09.686Z,6.80
2022-09-23T06:02:38.246Z,6.30
2022-09-23T06:05:08.921Z,7.00
2022-09-23T06:07:38.639Z,7.00
2022-09-23T06:10:08.438Z,7.10
2022-09-23T06:12:36.827Z,7.20
2022-09-23T06:15:08.260Z,7.40
2022-09-23T06:17:36.652Z,7.40
2022-09-23T06:20:05.488Z,7.60
2022-09-23T06:22:40.118Z,7.60
2022-09-23T06:25:09.828Z,7.80
2022-09-23T06:27:39.497Z,8.00
2022-09-23T06:30:09.684Z,8.10
2022-09-23T06:32:41.042Z,8.20
2022-09-23T06:35:22.400Z,8.50
2022-09-23T06:37:56.294Z,8.50
2022-09-23T06:40:24.828Z,8.70
2022-09-23T06:42:59.790Z,8.80
2022-09-23T06:45:29.122Z,9.10
2022-09-23T06:47:59.090Z,9.10
2022-09-23T06:50:29.165Z,9.20
2022-09-23T06:52:59.469Z,9.40
2022-09-23T06:55:28.830Z,9.50
2022-09-23T06:57:59.822Z,9.80
2022-09-23T07:00:29.252Z,9.90
2022-09-23T07:02:57.952Z,9.10
2022-09-23T07:05:26.439Z,10.10
2022-09-23T07:07:54.983Z,10.40
2022-09-23T07:10:24.835Z,10.60
2022-09-23T07:12:53.213Z,11.00
2022-09-23T07:15:21.597Z,11.20
2022-09-23T07:17:50.022Z,11.40
2022-09-23T07:20:19.056Z,11.70
2022-09-23T07:22:51.122Z,11.50
2022-09-23T07:25:20.400Z,12.00
2022-09-23T07:27:50.395Z,12.40
2022-09-23T07:30:25.744Z,12.70
2022-09-23T07:32:54.479Z,12.50
2022-09-23T07:35:22.927Z,13.10
2022-09-23T07:37:51.831Z,13.40
2022-09-23T07:40:20.489Z,13.80
2022-09-23T07:42:50.498Z,14.10
2022-09-23T07:45:21.596Z,14.30
2022-09-23T07:47:50.478Z,14.50
2022-09-23T07:50:19.128Z,14.70
2022-09-23T07:52:47.507Z,14.90
2022-09-23T07:55:20.726Z,15.20
2022-09-23T07:57:50.920Z,15.10
2022-09-23T08:00:19.656Z,15.30
2022-09-23T08:02:52.239Z,15.40
2022-09-23T08:05:22.736Z,15.30
2022-09-23T08:07:51.278Z,15.70
2022-09-23T08:10:21.227Z,15.60
2022-09-23T08:12:51.009Z,15.80
2022-09-23T08:15:19.463Z,16.00
2022-09-23T08:17:47.880Z,16.40
2022-09-23T08:20:36.394Z,16.70
2022-09-23T08:23:05.054Z,15.70
2022-09-23T08:25:34.866Z,17.20
2022-09-23T08:28:04.826Z,17.50
2022-09-23T08:30:33.332Z,17.80
2022-09-23T08:33:01.818Z,18.00
2022-09-23T08:35:31.001Z,18.30
2022-09-23T08:37:59.765Z,17.50
2022-09-23T08:40:28.333Z,18.50
2022-09-23T08:42:56.928Z,18.70
2022-09-23T08:45:29.748Z,18.60
2022-09-23T08:48:10.804Z,18.70
2022-09-23T08:50:46.045Z,19.30
2022-09-23T08:53:25.574Z,19.30
2022-09-23T08:55:56.729Z,19.40
2022-09-23T08:58:47.446Z,19.60
2022-09-23T09:01:27.437Z,19.70
2022-09-23T09:03:58.702Z,20.20
2022-09-23T09:06:45.546Z,20.80
2022-09-23T09:09:28.221Z,20.80
2022-09-23T09:12:04.305Z,21.20
2022-09-23T09:14:42.946Z,21.30
2022-09-23T09:17:26.312Z,21.50
2022-09-23T09:19:59.329Z,21.60
2022-09-23T09:22:48.490Z,21.90
2022-09-23T09:25:28.729Z,21.90
2022-09-23T09:28:01.423Z,21.90
2022-09-23T09:30:30.054Z,21.50
2022-09-23T09:33:05.091Z,21.80
2022-09-23T09:35:41.730Z,21.90
2022-09-23T09:38:10.158Z,21.50
2022-09-23T09:40:49.828Z,21.90
2022-09-23T09:43:23.296Z,21.70
2022-09-23T09:46:09.377Z,21.40
2022-09-23T09:48:50.421Z,21.80
2022-09-23T09:51:22.172Z,21.40
2022-09-23T09:53:53.027Z,21.50
2022-09-23T09:56:27.302Z,21.50
2022-09-23T09:59:00.048Z,21.90
2022-09-23T10:01:32.254Z,22.10
2022-09-23T10:04:06.498Z,22.40
2022-09-23T10:06:37.079Z,22.60
2022-09-23T10:09:19.255Z,22.50
2022-09-23T10:12:16.467Z,22.80
2022-09-23T10:14:46.249Z,23.30
2022-09-23T10:17:22.491Z,23.90
2022-09-23T10:20:00.931Z,24.50
2022-09-23T10:22:34.605Z,24.70
2022-09-23T10:25:10.592Z,25.00
2022-09-23T10:27:39.739Z,25.40
2022-09-23T10:30:22.893Z,25.00
2022-09-23T10:32:54.981Z,25.00
2022-09-23T10:35:28.241Z,25.50
2022-09-23T10:37:58.434Z,25.60
2022-09-23T10:40:49.660Z,25.00
2022-09-23T10:43:46.157Z,25.70
2022-09-23T10:46:39.604Z,25.50
2022-09-23T10:49:51.246Z,25.70
2022-09-23T10:52:56.690Z,25.30
2022-09-23T10:55:49.552Z,25.90
2022-09-23T10:59:06.172Z,25.10
2022-09-23T11:01:45.295Z,25.30
2022-09-23T11:05:08.969Z,24.60
2022-09-23T11:07:48.132Z,25.00
2022-09-23T11:11:02.383Z,24.80
2022-09-23T11:14:04.861Z,24.90
2022-09-23T11:16:52.609Z,24.90
2022-09-23T11:20:00.314Z,25.50
2022-09-23T11:22:53.117Z,25.10
2022-09-23T11:25:40.041Z,25.20
2022-09-23T11:28:47.505Z,25.60
2022-09-23T11:31:33.683Z,26.10
2022-09-23T11:34:41.391Z,26.50
2022-09-23T11:37:15.323Z,26.90
2022-09-23T11:39:52.217Z,27.40
2022-09-23T11:42:28.150Z,27.10
2022-09-23T11:45:04.119Z,28.10
2022-09-23T11:47:42.376Z,27.70
2022-09-23T11:50:27.792Z,28.30
2022-09-23T11:53:05.946Z,29.10
2022-09-23T11:55:54.829Z,29.50
2022-09-23T11:58:30.612Z,29.20
2022-09-23T12:01:07.406Z,29.00
2022-09-23T12:03:49.178Z,29.20
2022-09-23T12:06:22.932Z,29.20
2022-09-23T12:08:58.809Z,29.70
2022-09-23T12:11:39.023Z,29.90
2022-09-23T12:14:21.909Z,30.30
2022-09-23T12:17:25.966Z,30.20
2022-09-23T12:20:41.479Z,30.10
2022-09-23T12:23:39.863Z,30.80
2022-09-23T12:26:17.190Z,30.00
2022-09-23T12:28:51.492Z,28.80
2022-09-23T12:31:30.570Z,29.10
2022-09-23T12:34:02.178Z,30.00
2022-09-23T12:36:35.613Z,29.30
2022-09-23T12:39:07.787Z,28.90
2022-09-23T12:41:40.822Z,29.60
2022-09-23T12:44:34.571Z,30.80
2022-09-23T12:47:38.380Z,30.60
2022-09-23T12:50:53.506Z,31.50
2022-09-23T12:53:58.390Z,32.00
2022-09-23T12:56:50.647Z,32.10
2022-09-23T12:59:29.050Z,32.60
2022-09-23T13:01:58.610Z,33.00
2022-09-23T13:05:02.685Z,32.80
2022-09-23T13:07:34.335Z,33.80
2022-09-23T13:10:19.399Z,34.20
2022-09-23T13:12:49.094Z,34.80
2022-09-23T13:15:30.776Z,35.40
2022-09-23T13:18:52.531Z,35.30
2022-09-23T13:22:14.447Z,33.70
2022-09-23T13:24:48.676Z,32.90
2022-09-23T13:27:23.278Z,33.50
2022-09-23T13:29:58.945Z,34.30
2022-09-23T13:32:33.620Z,33.90
2022-09-23T13:35:07.841Z,33.00
2022-09-23T13:37:46.225Z,31.60
2022-09-23T13:40:27.336Z,31.30
2022-09-23T13:43:02.160Z,32.10
2022-09-23T13:45:33.209Z,31.90
2022-09-23T13:48:07.942Z,29.90
2022-09-23T13:50:40.941Z,28.90
2022-09-23T13:53:12.890Z,27.50
2022-09-23T13:55:42.034Z,27.60
2022-09-23T13:58:20.093Z,27.40
2022-09-23T14:00:50.659Z,27.80
2022-09-23T14:03:36.509Z,28.70
2022-09-23T14:06:10.697Z,30.30
2022-09-23T14:08:43.543Z,31.90
2022-09-23T14:11:17.394Z,32.60
2022-09-23T14:13:48.332Z,32.70
2022-09-23T14:16:19.952Z,32.90
2022-09-23T14:18:53.324Z,32.50
2022-09-23T14:21:35.324Z,31.40
2022-09-23T14:24:33.702Z,31.50
2022-09-23T14:27:16.262Z,32.40
2022-09-23T14:29:49.411Z,32.60
2022-09-23T14:32:23.740Z,31.80
2022-09-23T14:35:09.226Z,31.00
2022-09-23T14:38:03.832Z,30.50
2022-09-23T14:40:36.096Z,31.10
2022-09-23T14:43:15.760Z,30.40
2022-09-23T14:45:51.258Z,29.20
2022-09-23T14:48:25.343Z,29.00
2022-09-23T14:50:59.246Z,28.90
2022-09-23T14:53:40.979Z,28.60
2022-09-23T14:56:14.717Z,28.60
2022-09-23T14:58:55.783Z,27.60
2022-09-23T15:01:39.796Z,27.10
2022-09-23T15:04:30.951Z,25.10
2022-09-23T15:07:05.776Z,26.10
2022-09-23T15:09:40.483Z,25.90
2022-09-23T15:12:16.320Z,25.70
2022-09-23T15:14:52.069Z,25.50
2022-09-23T15:17:34.029Z,25.20
2022-09-23T15:20:06.698Z,25.00
2022-09-23T15:22:44.550Z,25.00
2022-09-23T15:25:21.409Z,25.00
2022-09-23T15:28:03.591Z,25.50
2022-09-23T15:30:33.109Z,25.80
2022-09-23T15:33:01.574Z,26.00
2022-09-23T15:35:32.238Z,25.90
2022-09-23T15:38:03.325Z,25.60
2022-09-23T15:40:34.941Z,25.60
2022-09-23T15:43:20.141Z,24.60
2022-09-23T15:45:53.213Z,24.90
2022-09-23T15:48:25.139Z,24.50
2022-09-23T15:50:55.311Z,24.30
2022-09-23T15:53:28.447Z,24.30
2022-09-23T15:55:58.575Z,24.10
2022-09-23T15:58:27.722Z,23.90
2022-09-23T16:00:58.119Z,22.50
2022-09-23T16:03:29.028Z,22.80
2022-09-23T16:06:03.262Z,22.80
2022-09-23T16:08:33.503Z,22.40
2022-09-23T16:11:02.203Z,22.00
2022-09-23T16:13:30.713Z,21.70
2022-09-23T16:15:59.199Z,21.30
2022-09-23T16:18:28.492Z,21.20
2022-09-23T16:20:59.139Z,20.70
2022-09-23T16:23:38.740Z,19.00
2022-09-23T16:26:16.558Z,20.20
2022-09-23T16:28:47.218Z,20.00
2022-09-23T16:31:17.057Z,20.00
2022-09-23T16:33:46.813Z,19.00
2022-09-23T16:36:22.663Z,19.30
2022-09-23T16:38:51.223Z,18.80
2022-09-23T16:41:21.742Z,18.10
2022-09-23T16:43:50.367Z,18.30
2022-09-23T16:46:20.735Z,18.30
2022-09-23T16:48:52.989Z,18.20
2022-09-23T16:51:24.360Z,18.00
2022-09-23T16:53:54.631Z,17.90
2022-09-23T16:56:28.704Z,17.60
2022-09-23T16:58:58.235Z,17.60
2022-09-23T17:01:46.489Z,17.50
2022-09-23T17:04:17.382Z,17.30
2022-09-23T17:06:48.435Z,17.30
2022-09-23T17:09:18.397Z,17.00
2022-09-23T17:11:53.444Z,16.90
2022-09-23T17:14:21.939Z,17.00
2022-09-23T17:16:50.677Z,16.80
2022-09-23T17:19:19.540Z,16.70
2022-09-23T17:21:47.906Z,16.50
2022-09-23T17:24:16.684Z,16.50
2022-09-23T17:26:52.040Z,16.30
2022-09-23T17:29:22.744Z,16.30
2022-09-23T17:31:51.196Z,16.30
2022-09-23T17:34:19.825Z,16.20
2022-09-23T17:36:48.268Z,16.00
2022-09-23T17:39:16.747Z,15.90
2022-09-23T17:41:45.473Z,13.40
2022-09-23T17:44:15.501Z,15.20
2022-09-23T17:46:45.285Z,15.70
2022-09-23T17:49:13.669Z,15.70
2022-09-23T17:51:42.265Z,15.80
2022-09-23T17:54:11.112Z,15.20
2022-09-23T17:56:39.484Z,15.60
2022-09-23T17:59:07.927Z,15.60
2022-09-23T18:01:36.385Z,14.90
2022-09-23T18:04:06.345Z,15.60
2022-09-23T18:06:38.038Z,15.70
2022-09-23T18:09:09.563Z,15.60
2022-09-23T18:11:40.670Z,15.00
2022-09-23T18:14:15.316Z,15.40
2022-09-23T18:16:47.295Z,15.40
2022-09-23T18:19:20.597Z,15.40
2022-09-23T18:21:51.769Z,15.30
2022-09-23T18:24:31.937Z,15.30
2022-09-23T18:27:01.484Z,15.10
2022-09-23T18:29:30.067Z,15.00
2022-09-23T18:31:59.311Z,14.90
2022-09-23T18:34:29.689Z,15.00
2022-09-23T18:36:58.282Z,14.80
2022-09-23T18:39:26.742Z,14.90
2022-09-23T18:41:55.563Z,14.90
2022-09-23T18:44:24.340Z,14.80
2022-09-23T18:46:52.926Z,14.60
2022-09-23T18:49:38.782Z,14.70
2022-09-23T18:52:08.792Z,14.70
2022-09-23T18:54:37.222Z,14.80
2022-09-23T18:57:05.819Z,14.70
2022-09-23T18:59:34.196Z,14.70
2022-09-23T19:02:02.918Z,14.70
2022-09-23T19:04:31.525Z,14.30
2022-09-23T19:07:00.321Z,14.60
2022-09-23T19:09:30.080Z,14.50
2022-09-23T19:11:58.422Z,14.60
2022-09-23T19:14:26.785Z,14.60
2022-09-23T19:16:55.673Z,14.60
2022-09-23T19:19:24.624Z,14.50
2022-09-23T19:21:53.033Z,14.60
2022-09-23T19:24:21.621Z,14.40
2022-09-23T19:26:51.453Z,14.40
2022-09-23T19:29:21.847Z,14.30
2022-09-23T19:31:51.288Z,14.10
2022-09-23T19:34:23.908Z,13.30
2022-09-23T19:36:52.890Z,14.30
2022-09-23T19:39:23.570Z,14.20
2022-09-23T19:41:55.771Z,14.20
2022-09-23T19:44:25.233Z,14.20
2022-09-23T19:46:56.802Z,14.20
2022-09-23T19:49:26.166Z,14.20
2022-09-23T19:51:55.806Z,14.10
2022-09-23T19:54:27.455Z,14.00
2022-09-23T19:56:57.737Z,14.10
2022-09-23T19:59:28.206Z,14.20
2022-09-23T20:01:56.713Z,14.20
2022-09-23T20:04:26.218Z,14.30
2022-09-23T20:06:54.616Z,14.30
2022-09-23T20:09:23.222Z,14.20
2022-09-23T20:11:52.175Z,14.30
2022-09-23T20:14:23.359Z,14.30
2022-09-23T20:16:53.161Z,14.30
2022-09-23T20:19:21.800Z,14.30
2022-09-23T20:22:11.314Z,14.10
2022-09-23T20:24:39.692Z,14.10
2022-09-23T20:27:10.447Z,13.80
2022-09-23T20:29:40.323Z,14.10
2022-09-23T20:32:09.406Z,14.20
2022-09-23T20:34:37.855Z,14.10
2022-09-23T20:37:06.424Z,14.10
2022-09-23T20:39:34.874Z,14.00
2022-09-23T20:42:03.340Z,14.10
2022-09-23T20:44:32.123Z,14.10
2022-09-23T20:47:02.126Z,13.90
2022-09-23T20:49:34.137Z,13.80
2022-09-23T20:52:03.682Z,13.90
2022-09-23T20:54:32.361Z,14.00
2022-09-23T20:57:02.607Z,13.90
2022-09-23T20:59:31.321Z,13.90
2022-09-23T21:02:01.435Z,13.50
2022-09-23T21:04:29.946Z,13.90
2022-09-23T21:07:00.372Z,13.80
2022-09-23T21:09:32.370Z,13.80
2022-09-23T21:12:01.039Z,13.80
2022-09-23T21:14:29.497Z,13.90
2022-09-23T21:16:58.003Z,13.90
2022-09-23T21:19:28.013Z,12.00
2022-09-23T21:21:56.444Z,13.80
2022-09-23T21:25:03.496Z,13.90
2022-09-23T21:27:13.550Z,13.90
2022-09-23T21:29:41.975Z,13.90
2022-09-23T21:32:10.839Z,13.80
2022-09-23T21:34:40.640Z,13.80
2022-09-23T21:37:09.011Z,13.80
2022-09-23T21:39:37.448Z,13.80
2022-09-23T21:42:06.115Z,13.80
2022-09-23T21:44:34.742Z,13.90
2022-09-23T21:47:03.201Z,13.90
2022-09-23T21:49:32.296Z,13.90
2022-09-23T21:52:02.424Z,13.90
2022-09-23T21:54:32.069Z,13.60
2022-09-23T21:57:00.505Z,13.90
2022-09-23T21:59:29.601Z,13.50
2022-09-23T22:01:59.308Z,13.80
2022-09-23T22:04:27.794Z,13.80
2022-09-23T22:06:57.433Z,13.70
2022-09-23T22:09:27.610Z,13.80
2022-09-23T22:12:11.205Z,13.70
2022-09-23T22:14:40.171Z,13.70
2022-09-23T22:17:10.928Z,12.50
2022-09-23T22:19:45.980Z,13.70
2022-09-23T22:22:18.075Z,13.70
2022-09-23T22:24:49.225Z,13.70
2022-09-23T22:27:20.466Z,13.60
2022-09-23T22:30:06.171Z,13.00
2022-09-23T22:32:41.712Z,13.00
2022-09-23T22:35:13.029Z,13.50
2022-09-23T22:37:41.785Z,13.60
2022-09-23T22:40:16.265Z,13.70
2022-09-23T22:42:45.498Z,13.70
2022-09-23T22:45:14.427Z,13.60
2022-09-23T22:47:46.164Z,13.50
2022-09-23T22:50:16.737Z,13.30
2022-09-23T22:52:45.154Z,13.30
2022-09-23T22:55:15.109Z,13.20
2022-09-23T22:57:43.525Z,13.30
2022-09-23T23:00:13.542Z,13.40
2022-09-23T23:02:42.564Z,13.30
2022-09-23T23:05:11.616Z,12.50
2022-09-23T23:07:40.535Z,13.40
2022-09-23T23:10:12.436Z,13.40
2022-09-23T23:12:42.246Z,13.40
2022-09-23T23:15:12.429Z,13.30
2022-09-23T23:17:43.692Z,13.30
2022-09-23T23:20:12.538Z,13.20
2022-09-23T23:22:44.239Z,13.20
2022-09-23T23:25:13.498Z,13.10
2022-09-23T23:27:44.037Z,13.00
2022-09-23T23:30:14.578Z,13.20
2022-09-23T23:32:43.877Z,13.10
2022-09-23T23:35:24.373Z,13.10
2022-09-23T23:37:59.674Z,13.20
2022-09-23T23:40:31.975Z,13.10
2022-09-23T23:43:05.550Z,10.60
2022-09-23T23:45:45.907Z,12.90
2022-09-23T23:48:17.810Z,12.80
2022-09-23T23:50:59.283Z,12.90
2022-09-23T23:53:36.753Z,12.80
2022-09-23T23:56:15.096Z,12.90
2022-09-23T23:58:59.649Z,12.80
